Current Conditions





Pressure
1022.92 (hPa) - 30.21 (inHG)
Visibility

10.0 (km) - 6.2 (miles)
   Temperature
4  °C
39°F
4  °C
Dewpoint
100  %
 Humidity
   Wind Speed
5  km/h
3  kts
3  mph
1.3  m/s
   Wind Direction
 300°
West North
West
   Airport Data
LELL
Location Sabadell 5 km (3.11 mi)
Metar :LELL 080300Z AUTO 30003KT 9999 NCD 04/04 Q1023
Sun 8th December 04:00 am
   Raw Metar Info
Raw METAR is the most common format in the world for the transmission of observational weather data. It is highly standardized through the International Civil Aviation Organization (ICAO), which allows it to be understood throughout most of the world.
   API Info
Data Provided by
https://www.checkwx.com/weather/LELL
   © Info
CSS/SVG/PHP scripts were developed by weather34.com for use in the weather34 template © 2015-2019

Guide Info provided by Metar-Wikipedia